createdAt,value
2023-01-22T00:01:25.525Z,0.20
2023-01-22T00:03:54.753Z,0.20
2023-01-22T00:06:23.732Z,0.20
2023-01-22T00:08:52.417Z,0.20
2023-01-22T00:11:20.910Z,0.10
2023-01-22T00:13:49.040Z,0.20
2023-01-22T00:16:18.694Z,0.20
2023-01-22T00:18:48.594Z,0.20
2023-01-22T00:21:16.799Z,0.20
2023-01-22T00:23:44.951Z,0.20
2023-01-22T00:26:15.436Z,0.20
2023-01-22T00:28:46.074Z,0.20
2023-01-22T00:31:16.176Z,0.30
2023-01-22T00:33:46.976Z,0.20
2023-01-22T00:36:17.315Z,0.20
2023-01-22T00:38:46.374Z,0.20
2023-01-22T00:41:15.798Z,0.20
2023-01-22T00:43:44.135Z,0.20
2023-01-22T00:46:15.462Z,0.20
2023-01-22T00:48:45.224Z,0.20
2023-01-22T00:51:15.852Z,0.20
2023-01-22T00:53:44.854Z,0.30
2023-01-22T00:56:15.259Z,0.20
2023-01-22T00:58:43.827Z,0.20
2023-01-22T01:01:14.167Z,0.20
2023-01-22T01:03:42.715Z,0.20
2023-01-22T01:06:18.168Z,0.20
2023-01-22T01:08:48.408Z,0.20
2023-01-22T01:11:21.700Z,0.20
2023-01-22T01:13:51.854Z,0.20
2023-01-22T01:16:24.528Z,0.20
2023-01-22T01:18:52.670Z,0.20
2023-01-22T01:21:22.198Z,0.20
2023-01-22T01:23:50.511Z,0.30
2023-01-22T01:26:18.909Z,0.30
2023-01-22T01:28:47.738Z,0.30
2023-01-22T01:31:17.826Z,0.30
2023-01-22T01:33:46.733Z,0.30
2023-01-22T01:36:18.251Z,0.30
2023-01-22T01:38:49.541Z,0.30
2023-01-22T01:41:22.770Z,0.30
2023-01-22T01:44:14.270Z,0.30
2023-01-22T01:46:48.435Z,0.30
2023-01-22T01:49:24.240Z,0.30
2023-01-22T01:51:53.698Z,0.30
2023-01-22T01:54:23.647Z,0.30
2023-01-22T01:56:56.695Z,0.30
2023-01-22T01:59:25.353Z,0.30
2023-01-22T02:01:56.239Z,0.30
2023-01-22T02:04:25.819Z,0.40
2023-01-22T02:06:55.608Z,0.40
2023-01-22T02:09:25.457Z,0.40
2023-01-22T02:11:55.017Z,0.40
2023-01-22T02:14:28.045Z,0.40
2023-01-22T02:17:03.935Z,0.40
2023-01-22T02:19:32.262Z,0.40
2023-01-22T02:22:02.133Z,0.40
2023-01-22T02:24:32.093Z,0.50
2023-01-22T02:27:00.275Z,0.50
2023-01-22T02:29:29.211Z,0.50
2023-01-22T02:31:57.675Z,0.50
2023-01-22T02:34:25.923Z,0.50
2023-01-22T02:36:55.315Z,0.50
2023-01-22T02:39:24.999Z,0.50
2023-01-22T02:41:54.385Z,0.50
2023-01-22T02:44:22.734Z,0.50
2023-01-22T02:46:51.119Z,0.50
2023-01-22T02:49:19.293Z,0.40
2023-01-22T02:51:47.589Z,0.50
2023-01-22T02:54:15.886Z,0.50
2023-01-22T02:56:45.397Z,0.50
2023-01-22T02:59:13.663Z,0.50
2023-01-22T03:01:42.699Z,0.60
2023-01-22T03:04:11.786Z,0.50
2023-01-22T03:06:42.202Z,0.50
2023-01-22T03:09:12.209Z,0.50
2023-01-22T03:11:42.926Z,0.40
2023-01-22T03:14:36.639Z,0.40
2023-01-22T03:17:22.971Z,0.40
2023-01-22T03:20:10.287Z,0.40
2023-01-22T03:22:38.550Z,0.40
2023-01-22T03:25:07.964Z,0.40
2023-01-22T03:27:38.186Z,0.40
2023-01-22T03:30:10.681Z,0.40
2023-01-22T03:32:38.927Z,0.40
2023-01-22T03:35:10.686Z,0.40
2023-01-22T03:37:53.664Z,0.50
2023-01-22T03:40:22.039Z,0.40
2023-01-22T03:42:50.237Z,0.40
2023-01-22T03:45:19.881Z,0.40
2023-01-22T03:47:54.662Z,0.40
2023-01-22T03:50:29.969Z,0.40
2023-01-22T03:52:59.527Z,0.40
2023-01-22T03:55:27.692Z,0.40
2023-01-22T03:57:55.945Z,0.40
2023-01-22T04:00:25.886Z,0.40
2023-01-22T04:02:54.820Z,0.40
2023-01-22T04:05:27.457Z,0.40
2023-01-22T04:07:55.900Z,0.40
2023-01-22T04:10:28.056Z,0.40
2023-01-22T04:12:56.647Z,0.40
2023-01-22T04:15:26.425Z,0.40
2023-01-22T04:17:59.529Z,0.40
2023-01-22T04:20:36.448Z,0.40
2023-01-22T04:23:20.371Z,0.40
2023-01-22T04:25:50.814Z,0.40
2023-01-22T04:28:19.698Z,0.40
2023-01-22T04:30:56.015Z,0.40
2023-01-22T04:33:35.450Z,0.40
2023-01-22T04:36:11.426Z,0.40
2023-01-22T04:38:39.963Z,0.40
2023-01-22T04:41:08.321Z,0.40
2023-01-22T04:43:36.520Z,0.40
2023-01-22T04:46:06.960Z,0.50
2023-01-22T04:48:35.418Z,0.50
2023-01-22T04:51:03.789Z,0.50
2023-01-22T04:53:33.833Z,0.50
2023-01-22T04:56:02.297Z,0.50
2023-01-22T04:58:30.733Z,0.50
2023-01-22T05:01:00.850Z,0.50
2023-01-22T05:03:32.327Z,0.50
2023-01-22T05:06:04.680Z,0.50
2023-01-22T05:08:35.233Z,0.40
2023-01-22T05:11:05.297Z,0.50
2023-01-22T05:13:43.026Z,0.50
2023-01-22T05:16:11.867Z,0.50
2023-01-22T05:18:41.504Z,0.60
2023-01-22T05:21:09.759Z,0.70
2023-01-22T05:23:38.926Z,0.70
2023-01-22T05:26:08.482Z,0.70
2023-01-22T05:28:51.932Z,0.70
2023-01-22T05:31:33.013Z,0.70
2023-01-22T05:34:05.301Z,0.70
2023-01-22T05:36:33.623Z,0.70
2023-01-22T05:39:07.665Z,0.70
2023-01-22T05:41:37.039Z,0.70
2023-01-22T05:44:06.396Z,0.60
2023-01-22T05:46:34.885Z,0.60
2023-01-22T05:49:07.952Z,0.60
2023-01-22T05:51:37.262Z,0.60
2023-01-22T05:54:06.925Z,0.60
2023-01-22T05:56:38.295Z,0.70
2023-01-22T05:59:06.516Z,0.70
2023-01-22T06:01:34.763Z,0.60
2023-01-22T06:04:04.119Z,0.60
2023-01-22T06:06:33.906Z,0.60
2023-01-22T06:09:03.342Z,0.60
2023-01-22T06:11:36.544Z,0.60
2023-01-22T06:14:05.221Z,0.60
2023-01-22T06:16:34.869Z,0.50
2023-01-22T06:19:32.188Z,0.50
2023-01-22T06:22:01.789Z,0.50
2023-01-22T06:24:37.620Z,0.50
2023-01-22T06:27:07.797Z,0.50
2023-01-22T06:29:42.121Z,0.50
2023-01-22T06:32:10.701Z,0.50
2023-01-22T06:34:39.571Z,0.50
2023-01-22T06:37:09.351Z,0.60
2023-01-22T06:39:39.696Z,0.60
2023-01-22T06:42:38.258Z,0.60
2023-01-22T06:45:09.567Z,0.70
2023-01-22T06:47:39.327Z,0.70
2023-01-22T06:50:08.750Z,0.80
2023-01-22T06:52:38.464Z,0.80
2023-01-22T06:55:07.768Z,0.80
2023-01-22T06:57:36.361Z,0.80
2023-01-22T07:00:06.545Z,0.70
2023-01-22T07:02:34.774Z,0.80
2023-01-22T07:05:03.066Z,0.80
2023-01-22T07:07:31.168Z,0.80
2023-01-22T07:10:01.813Z,0.80
2023-01-22T07:12:30.347Z,0.80
2023-01-22T07:14:58.545Z,0.70
2023-01-22T07:17:26.749Z,0.70
2023-01-22T07:19:55.146Z,0.80
2023-01-22T07:22:23.341Z,0.80
2023-01-22T07:24:52.236Z,0.80
2023-01-22T07:27:21.899Z,0.80
2023-01-22T07:29:50.920Z,0.80
2023-01-22T07:32:19.248Z,0.80
2023-01-22T07:34:47.578Z,0.80
2023-01-22T07:37:15.799Z,0.80
2023-01-22T07:39:44.113Z,0.80
2023-01-22T07:42:13.927Z,0.90
2023-01-22T07:44:44.493Z,0.90
2023-01-22T07:47:12.690Z,1.00
2023-01-22T07:49:40.871Z,1.00
2023-01-22T07:52:09.149Z,1.10
2023-01-22T07:54:37.684Z,1.10
2023-01-22T07:57:06.043Z,1.10
2023-01-22T07:59:36.073Z,1.10
2023-01-22T08:02:05.730Z,1.20
2023-01-22T08:04:34.113Z,1.10
2023-01-22T08:07:02.231Z,1.10
2023-01-22T08:09:30.484Z,1.20
2023-01-22T08:11:58.990Z,1.20
2023-01-22T08:14:27.207Z,1.30
2023-01-22T08:16:55.700Z,1.40
2023-01-22T08:19:25.373Z,1.40
2023-01-22T08:21:59.210Z,1.50
2023-01-22T08:24:30.294Z,1.60
2023-01-22T08:26:58.861Z,1.60
2023-01-22T08:29:27.446Z,1.70
2023-01-22T08:31:56.750Z,1.70
2023-01-22T08:34:26.512Z,1.70
2023-01-22T08:36:54.671Z,1.70
2023-01-22T08:39:22.932Z,1.60
2023-01-22T08:41:52.189Z,1.60
2023-01-22T08:44:20.408Z,1.60
2023-01-22T08:46:48.788Z,1.70
2023-01-22T08:49:18.149Z,1.70
2023-01-22T08:51:47.953Z,1.80
2023-01-22T08:54:16.421Z,1.90
2023-01-22T08:56:44.729Z,1.90
2023-01-22T08:59:12.982Z,1.90
2023-01-22T09:01:41.251Z,2.00
2023-01-22T09:04:10.794Z,1.90
2023-01-22T09:06:40.321Z,2.00
2023-01-22T09:09:10.064Z,2.00
2023-01-22T09:11:38.211Z,2.00
2023-01-22T09:14:08.374Z,1.90
2023-01-22T09:16:37.612Z,2.00
2023-01-22T09:19:06.318Z,2.00
2023-01-22T09:21:37.262Z,2.00
2023-01-22T09:24:06.047Z,2.10
2023-01-22T09:26:37.985Z,2.10
2023-01-22T09:29:06.806Z,2.00
2023-01-22T09:31:35.760Z,2.00
2023-01-22T09:34:04.944Z,2.10
2023-01-22T09:36:33.494Z,2.20
2023-01-22T09:39:01.783Z,2.10
2023-01-22T09:41:35.621Z,2.10
2023-01-22T09:44:09.944Z,2.20
2023-01-22T09:46:46.374Z,2.20
2023-01-22T09:49:18.444Z,2.30
2023-01-22T09:51:58.154Z,2.50
2023-01-22T09:54:27.599Z,2.50
2023-01-22T09:57:00.756Z,2.60
2023-01-22T09:59:35.389Z,2.70
2023-01-22T10:02:21.412Z,2.70
2023-01-22T10:04:53.938Z,2.70
2023-01-22T10:07:28.115Z,2.70
2023-01-22T10:10:02.714Z,2.80
2023-01-22T10:12:32.454Z,2.80
2023-01-22T10:15:00.834Z,2.80
2023-01-22T10:17:35.221Z,2.90
2023-01-22T10:20:08.278Z,2.90
2023-01-22T10:22:36.574Z,3.00
2023-01-22T10:25:05.124Z,3.00
2023-01-22T10:27:39.827Z,3.10
2023-01-22T10:30:19.928Z,3.20
2023-01-22T10:33:00.806Z,3.30
2023-01-22T10:35:31.914Z,3.40
2023-01-22T10:38:01.338Z,3.40
2023-01-22T10:40:38.032Z,3.40
2023-01-22T10:43:12.839Z,3.30
2023-01-22T10:45:52.802Z,3.20
2023-01-22T10:48:21.722Z,3.20
2023-01-22T10:51:11.780Z,3.20
2023-01-22T10:53:47.152Z,3.10
2023-01-22T10:56:28.606Z,3.30
2023-01-22T10:59:00.383Z,3.30
2023-01-22T11:01:33.409Z,3.30
2023-01-22T11:04:14.556Z,3.30
2023-01-22T11:06:48.641Z,3.30
2023-01-22T11:09:21.315Z,3.20
2023-01-22T11:11:56.320Z,3.20
2023-01-22T11:14:30.967Z,3.20
2023-01-22T11:17:07.522Z,3.20
2023-01-22T11:19:45.875Z,3.30
2023-01-22T11:22:26.586Z,3.40
2023-01-22T11:24:55.247Z,3.40
2023-01-22T11:27:50.903Z,3.30
2023-01-22T11:30:47.308Z,3.30
2023-01-22T11:33:32.226Z,3.30
2023-01-22T11:36:09.556Z,3.30
2023-01-22T11:38:51.298Z,3.30
2023-01-22T11:41:50.391Z,3.40
2023-01-22T11:45:02.216Z,3.40
2023-01-22T11:48:06.688Z,3.30
2023-01-22T11:50:44.573Z,3.20
2023-01-22T11:53:44.984Z,3.20
2023-01-22T11:56:39.665Z,3.20
2023-01-22T11:59:16.622Z,3.20
2023-01-22T12:02:20.555Z,3.30
2023-01-22T12:05:10.804Z,3.30
2023-01-22T12:07:56.369Z,3.30
2023-01-22T12:10:48.219Z,3.20
2023-01-22T12:13:43.036Z,3.30
2023-01-22T12:16:19.683Z,3.20
2023-01-22T12:19:19.136Z,3.20
2023-01-22T12:21:59.440Z,3.10
2023-01-22T12:24:34.366Z,3.00
2023-01-22T12:27:07.343Z,3.10
2023-01-22T12:29:43.058Z,3.30
2023-01-22T12:32:15.353Z,3.30
2023-01-22T12:34:50.879Z,3.30
2023-01-22T12:37:30.316Z,3.30
2023-01-22T12:40:23.138Z,3.30
2023-01-22T12:42:59.971Z,3.30
2023-01-22T12:45:41.910Z,3.30
2023-01-22T12:48:23.581Z,3.30
2023-01-22T12:50:56.831Z,3.30
2023-01-22T12:53:29.864Z,3.30
2023-01-22T12:56:07.288Z,3.40
2023-01-22T12:58:37.874Z,3.40
2023-01-22T13:01:23.168Z,3.40
2023-01-22T13:04:00.640Z,3.40
2023-01-22T13:06:35.545Z,3.30
2023-01-22T13:09:07.855Z,3.30
2023-01-22T13:11:41.358Z,3.30
2023-01-22T13:14:20.200Z,3.20
2023-01-22T13:16:55.951Z,3.20
2023-01-22T13:19:30.049Z,3.30
2023-01-22T13:22:00.895Z,3.40
2023-01-22T13:24:30.588Z,3.40
2023-01-22T13:27:03.930Z,3.50
2023-01-22T13:29:35.903Z,3.40
2023-01-22T13:32:07.565Z,3.40
2023-01-22T13:34:35.896Z,3.30
2023-01-22T13:37:04.163Z,3.30
2023-01-22T13:39:34.988Z,3.50
2023-01-22T13:42:06.493Z,3.50
2023-01-22T13:44:37.339Z,3.40
2023-01-22T13:47:06.408Z,3.50
2023-01-22T13:49:42.325Z,3.50
2023-01-22T13:52:21.244Z,3.40
2023-01-22T13:55:00.384Z,3.50
2023-01-22T13:57:28.595Z,3.60
2023-01-22T13:59:59.676Z,3.50
2023-01-22T14:02:30.807Z,3.50
2023-01-22T14:04:59.947Z,3.60
2023-01-22T14:07:31.135Z,3.60
2023-01-22T14:10:15.777Z,3.70
2023-01-22T14:12:44.124Z,3.70
2023-01-22T14:15:17.582Z,3.70
2023-01-22T14:17:47.549Z,3.80
2023-01-22T14:20:17.352Z,3.80
2023-01-22T14:22:45.809Z,3.70
2023-01-22T14:25:15.646Z,3.60
2023-01-22T14:27:54.263Z,3.50
2023-01-22T14:30:22.888Z,3.50
2023-01-22T14:32:51.127Z,3.40
2023-01-22T14:35:21.708Z,3.40
2023-01-22T14:37:52.265Z,3.30
2023-01-22T14:40:24.957Z,3.30
2023-01-22T14:42:53.995Z,3.30
2023-01-22T14:45:22.724Z,3.30
2023-01-22T14:47:52.457Z,3.40
2023-01-22T14:50:21.887Z,3.40
2023-01-22T14:52:52.019Z,3.40
2023-01-22T14:55:21.599Z,3.40
2023-01-22T14:57:49.935Z,3.40
2023-01-22T15:00:20.875Z,3.50
2023-01-22T15:02:49.352Z,3.50
2023-01-22T15:05:17.983Z,3.50
2023-01-22T15:07:46.347Z,3.40
2023-01-22T15:10:14.835Z,3.30
2023-01-22T15:12:49.119Z,3.30
2023-01-22T15:15:18.860Z,3.20
2023-01-22T15:17:47.001Z,3.20
2023-01-22T15:20:15.185Z,3.30
2023-01-22T15:22:43.643Z,3.20
2023-01-22T15:25:12.172Z,3.20
2023-01-22T15:27:40.413Z,3.20
2023-01-22T15:30:12.984Z,3.30
2023-01-22T15:32:41.188Z,3.20
2023-01-22T15:35:10.484Z,3.20
2023-01-22T15:37:38.864Z,3.20
2023-01-22T15:40:10.097Z,3.10
2023-01-22T15:42:38.875Z,3.00
2023-01-22T15:45:11.401Z,3.10
2023-01-22T15:47:39.686Z,3.10
2023-01-22T15:50:09.378Z,3.10
2023-01-22T15:52:37.730Z,3.10
2023-01-22T15:55:07.641Z,3.10
2023-01-22T15:57:36.424Z,3.20
2023-01-22T16:00:06.052Z,3.20
2023-01-22T16:02:41.964Z,3.10
2023-01-22T16:05:10.952Z,3.10
2023-01-22T16:07:39.248Z,3.10
2023-01-22T16:10:08.182Z,3.00
2023-01-22T16:12:36.389Z,3.00
2023-01-22T16:15:05.194Z,2.90
2023-01-22T16:17:33.566Z,2.90
2023-01-22T16:20:03.269Z,2.90
2023-01-22T16:22:31.489Z,2.90
2023-01-22T16:24:59.676Z,2.80
2023-01-22T16:27:27.935Z,2.90
2023-01-22T16:29:56.183Z,2.90
2023-01-22T16:32:24.545Z,2.80
2023-01-22T16:34:52.837Z,2.80
2023-01-22T16:37:22.463Z,2.80
2023-01-22T16:39:55.647Z,2.80
2023-01-22T16:42:24.206Z,2.70
2023-01-22T16:44:52.758Z,2.80
2023-01-22T16:47:20.928Z,2.80
2023-01-22T16:49:49.303Z,2.80
2023-01-22T16:52:22.704Z,2.80
2023-01-22T16:54:53.421Z,2.80
2023-01-22T16:57:21.691Z,2.80
2023-01-22T16:59:50.047Z,2.80
2023-01-22T17:02:19.069Z,2.80
2023-01-22T17:04:47.394Z,2.80
2023-01-22T17:07:32.372Z,2.80
2023-01-22T17:10:03.140Z,2.80
2023-01-22T17:12:31.436Z,2.80
2023-01-22T17:14:59.881Z,2.70
2023-01-22T17:17:28.261Z,2.60
2023-01-22T17:19:56.543Z,2.60
2023-01-22T17:22:25.321Z,2.60
2023-01-22T17:24:53.798Z,2.50
2023-01-22T17:27:25.676Z,2.50
2023-01-22T17:29:53.885Z,2.50
2023-01-22T17:32:22.745Z,2.50
2023-01-22T17:34:50.983Z,2.50
2023-01-22T17:37:19.318Z,2.50
2023-01-22T17:39:50.589Z,2.40
2023-01-22T17:42:19.049Z,2.40
2023-01-22T17:44:48.843Z,2.40
2023-01-22T17:47:17.029Z,2.40
2023-01-22T17:49:46.803Z,2.40
2023-01-22T17:52:17.716Z,2.40
2023-01-22T17:54:46.027Z,2.40
2023-01-22T17:57:14.341Z,2.40
2023-01-22T17:59:42.618Z,2.40
2023-01-22T18:02:12.962Z,2.40
2023-01-22T18:04:41.397Z,2.40
2023-01-22T18:07:11.674Z,2.40
2023-01-22T18:09:40.148Z,2.40
2023-01-22T18:12:09.353Z,2.40
2023-01-22T18:14:38.082Z,2.50
2023-01-22T18:17:06.545Z,2.50
2023-01-22T18:19:36.207Z,2.40
2023-01-22T18:22:04.605Z,2.40
2023-01-22T18:24:34.419Z,2.30
2023-01-22T18:27:02.615Z,2.30
2023-01-22T18:29:30.843Z,2.30
2023-01-22T18:31:59.307Z,2.30
2023-01-22T18:34:27.549Z,2.30
2023-01-22T18:36:57.095Z,2.20
2023-01-22T18:39:25.981Z,2.20
2023-01-22T18:41:54.369Z,2.20
2023-01-22T18:44:27.699Z,2.10
2023-01-22T18:46:58.677Z,2.10
2023-01-22T18:49:28.092Z,2.10
2023-01-22T18:52:00.908Z,2.20
2023-01-22T18:54:29.921Z,2.10
2023-01-22T18:56:58.308Z,2.00
2023-01-22T18:59:26.771Z,2.00
2023-01-22T19:01:55.040Z,2.00
2023-01-22T19:04:23.343Z,2.00
2023-01-22T19:06:53.613Z,2.00
2023-01-22T19:09:23.943Z,1.90
2023-01-22T19:11:53.066Z,1.90
2023-01-22T19:14:22.512Z,2.00
2023-01-22T19:16:53.533Z,2.00
2023-01-22T19:19:22.773Z,2.00
2023-01-22T19:21:54.417Z,2.00
2023-01-22T19:24:27.784Z,2.10
2023-01-22T19:26:56.724Z,2.10
2023-01-22T19:29:26.365Z,2.00
2023-01-22T19:31:56.835Z,2.00
2023-01-22T19:34:27.310Z,2.00
2023-01-22T19:36:57.854Z,2.00
2023-01-22T19:39:28.130Z,2.00
2023-01-22T19:41:58.059Z,2.00
2023-01-22T19:44:26.281Z,2.00
2023-01-22T19:46:54.527Z,2.10
2023-01-22T19:49:22.872Z,2.10
2023-01-22T19:51:51.118Z,2.10
2023-01-22T19:54:19.560Z,2.00
2023-01-22T19:56:49.206Z,2.00
2023-01-22T19:59:20.509Z,2.00
2023-01-22T20:01:50.435Z,2.00
2023-01-22T20:04:22.541Z,2.10
2023-01-22T20:06:55.466Z,2.10
2023-01-22T20:09:24.123Z,2.10
2023-01-22T20:11:55.651Z,2.20
2023-01-22T20:14:26.050Z,2.20
2023-01-22T20:16:54.230Z,2.20
2023-01-22T20:19:22.790Z,2.20
2023-01-22T20:21:50.976Z,2.20
2023-01-22T20:24:19.342Z,2.20
2023-01-22T20:26:47.589Z,2.20
2023-01-22T20:29:17.830Z,2.20
2023-01-22T20:31:46.165Z,2.20
2023-01-22T20:34:14.492Z,2.10
2023-01-22T20:36:42.790Z,2.10
2023-01-22T20:39:10.939Z,2.10
2023-01-22T20:41:39.153Z,2.10
2023-01-22T20:44:09.039Z,2.10
2023-01-22T20:46:41.127Z,2.10
2023-01-22T20:49:09.817Z,2.00
2023-01-22T20:51:38.773Z,2.00
2023-01-22T20:54:07.197Z,2.00
2023-01-22T20:56:35.831Z,2.00
2023-01-22T20:59:07.530Z,2.00
2023-01-22T21:01:36.539Z,2.00
2023-01-22T21:04:06.863Z,2.00
2023-01-22T21:06:37.311Z,2.00
2023-01-22T21:09:06.793Z,2.00
2023-01-22T21:11:37.796Z,2.00
2023-01-22T21:14:07.763Z,2.00
2023-01-22T21:16:39.289Z,1.90
2023-01-22T21:19:15.487Z,1.90
2023-01-22T21:21:44.239Z,1.90
2023-01-22T21:24:12.557Z,1.80
2023-01-22T21:26:41.284Z,1.80
2023-01-22T21:29:14.028Z,1.70
2023-01-22T21:31:42.512Z,1.70
2023-01-22T21:34:12.514Z,1.70
2023-01-22T21:36:43.545Z,1.70
2023-01-22T21:39:14.988Z,1.70
2023-01-22T21:41:44.463Z,1.70
2023-01-22T21:44:31.977Z,1.70
2023-01-22T21:47:00.529Z,1.60
2023-01-22T21:49:31.142Z,1.60
2023-01-22T21:52:05.069Z,1.60
2023-01-22T21:54:37.029Z,1.60
2023-01-22T21:57:06.985Z,1.60
2023-01-22T21:59:37.060Z,1.60
2023-01-22T22:02:06.415Z,1.60
2023-01-22T22:04:36.259Z,1.60
2023-01-22T22:07:04.808Z,1.70
2023-01-22T22:09:33.049Z,1.70
2023-01-22T22:12:03.467Z,1.60
2023-01-22T22:14:32.060Z,1.60
2023-01-22T22:17:00.353Z,1.60
2023-01-22T22:19:29.399Z,1.60
2023-01-22T22:21:58.913Z,1.60
2023-01-22T22:24:27.056Z,1.60
2023-01-22T22:26:55.328Z,1.60
2023-01-22T22:29:23.732Z,1.70
2023-01-22T22:31:51.986Z,1.70
2023-01-22T22:34:20.217Z,1.70
2023-01-22T22:36:48.522Z,1.70
2023-01-22T22:39:18.885Z,1.80
2023-01-22T22:41:47.318Z,1.80
2023-01-22T22:44:16.902Z,1.70
2023-01-22T22:46:45.088Z,1.80
2023-01-22T22:49:14.950Z,1.80
2023-01-22T22:51:44.848Z,1.70
2023-01-22T22:54:16.613Z,1.70
2023-01-22T22:56:51.627Z,1.70
2023-01-22T22:59:21.019Z,1.80
2023-01-22T23:01:49.975Z,1.80
2023-01-22T23:04:18.321Z,1.80
2023-01-22T23:06:47.516Z,1.80
2023-01-22T23:09:19.559Z,1.70
2023-01-22T23:11:52.194Z,1.70
2023-01-22T23:14:21.169Z,1.80
2023-01-22T23:16:50.145Z,1.80
2023-01-22T23:19:21.408Z,1.80
2023-01-22T23:21:53.131Z,1.80
2023-01-22T23:24:21.747Z,1.80
2023-01-22T23:26:51.854Z,1.80
2023-01-22T23:29:24.023Z,1.80
2023-01-22T23:31:52.800Z,1.70
2023-01-22T23:34:23.321Z,1.70
2023-01-22T23:36:52.053Z,1.70
2023-01-22T23:39:21.959Z,1.70
2023-01-22T23:41:51.605Z,1.70
2023-01-22T23:44:20.222Z,1.70
2023-01-22T23:46:48.385Z,1.60
2023-01-22T23:49:16.562Z,1.60
2023-01-22T23:51:45.785Z,1.60
2023-01-22T23:54:14.041Z,1.60
2023-01-22T23:56:42.221Z,1.60
2023-01-22T23:59:12.799Z,1.70
